sensor_id;sensor_type;location;lat;lon;timestamp;temperature;humidity
24468;DHT22;12634;50.852;5.676;2023-05-14T00:02:15;11.10;99.90
24468;DHT22;12634;50.852;5.676;2023-05-14T00:04:42;11.70;99.90
24468;DHT22;12634;50.852;5.676;2023-05-14T00:07:09;12.00;99.90
24468;DHT22;12634;50.852;5.676;2023-05-14T00:09:36;12.10;99.90
24468;DHT22;12634;50.852;5.676;2023-05-14T00:12:04;11.90;99.90
24468;DHT22;12634;50.852;5.676;2023-05-14T00:14:31;12.10;99.90
24468;DHT22;12634;50.852;5.676;2023-05-14T00:16:58;12.30;99.90
24468;DHT22;12634;50.852;5.676;2023-05-14T00:19:27;12.30;99.90
24468;DHT22;12634;50.852;5.676;2023-05-14T00:21:54;12.20;99.90
24468;DHT22;12634;50.852;5.676;2023-05-14T00:24:21;12.00;99.90
24468;DHT22;12634;50.852;5.676;2023-05-14T00:26:48;11.90;99.90
24468;DHT22;12634;50.852;5.676;2023-05-14T00:29:15;11.70;99.90
24468;DHT22;12634;50.852;5.676;2023-05-14T00:31:42;11.30;99.90
24468;DHT22;12634;50.852;5.676;2023-05-14T00:34:10;11.30;99.90
24468;DHT22;12634;50.852;5.676;2023-05-14T00:36:38;11.50;99.90
24468;DHT22;12634;50.852;5.676;2023-05-14T00:39:05;11.70;99.90
24468;DHT22;12634;50.852;5.676;2023-05-14T00:41:32;11.70;99.90
24468;DHT22;12634;50.852;5.676;2023-05-14T00:43:59;11.70;99.90
24468;DHT22;12634;50.852;5.676;2023-05-14T00:46:27;11.70;99.90
24468;DHT22;12634;50.852;5.676;2023-05-14T00:48:54;11.40;99.90
24468;DHT22;12634;50.852;5.676;2023-05-14T00:51:21;11.10;99.90
24468;DHT22;12634;50.852;5.676;2023-05-14T00:53:50;11.40;99.90
24468;DHT22;12634;50.852;5.676;2023-05-14T00:56:18;11.50;99.90
24468;DHT22;12634;50.852;5.676;2023-05-14T00:58:46;11.70;99.90
24468;DHT22;12634;50.852;5.676;2023-05-14T01:01:13;11.70;99.90
24468;DHT22;12634;50.852;5.676;2023-05-14T01:03:41;11.80;99.90
24468;DHT22;12634;50.852;5.676;2023-05-14T01:06:17;11.60;99.90
24468;DHT22;12634;50.852;5.676;2023-05-14T01:08:52;11.50;99.90
24468;DHT22;12634;50.852;5.676;2023-05-14T01:11:28;11.20;99.90
24468;DHT22;12634;50.852;5.676;2023-05-14T01:14:02;11.00;99.90
24468;DHT22;12634;50.852;5.676;2023-05-14T01:16:33;10.70;99.90
24468;DHT22;12634;50.852;5.676;2023-05-14T01:19:04;10.50;99.90
24468;DHT22;12634;50.852;5.676;2023-05-14T01:21:37;10.50;99.90
24468;DHT22;12634;50.852;5.676;2023-05-14T01:24:06;10.30;99.90
24468;DHT22;12634;50.852;5.676;2023-05-14T01:26:33;10.20;99.90
24468;DHT22;12634;50.852;5.676;2023-05-14T01:29:04;10.20;99.90
24468;DHT22;12634;50.852;5.676;2023-05-14T01:31:35;10.20;99.90
24468;DHT22;12634;50.852;5.676;2023-05-14T01:34:04;10.20;99.90
24468;DHT22;12634;50.852;5.676;2023-05-14T01:36:32;10.20;99.90
24468;DHT22;12634;50.852;5.676;2023-05-14T01:39:01;10.30;99.90
24468;DHT22;12634;50.852;5.676;2023-05-14T01:41:30;10.20;99.90
24468;DHT22;12634;50.852;5.676;2023-05-14T01:43:58;10.10;99.90
24468;DHT22;12634;50.852;5.676;2023-05-14T01:46:25;9.90;99.90
24468;DHT22;12634;50.852;5.676;2023-05-14T01:48:52;9.70;99.90
24468;DHT22;12634;50.852;5.676;2023-05-14T01:51:19;9.70;99.90
24468;DHT22;12634;50.852;5.676;2023-05-14T01:53:46;9.90;99.90
24468;DHT22;12634;50.852;5.676;2023-05-14T01:56:14;9.90;99.90
24468;DHT22;12634;50.852;5.676;2023-05-14T01:58:41;9.90;99.90
24468;DHT22;12634;50.852;5.676;2023-05-14T02:01:08;9.90;99.90
24468;DHT22;12634;50.852;5.676;2023-05-14T02:03:36;9.90;99.90
24468;DHT22;12634;50.852;5.676;2023-05-14T02:06:03;10.00;99.90
24468;DHT22;12634;50.852;5.676;2023-05-14T02:08:30;10.50;99.90
24468;DHT22;12634;50.852;5.676;2023-05-14T02:10:57;10.70;99.90
24468;DHT22;12634;50.852;5.676;2023-05-14T02:13:25;10.80;99.90
24468;DHT22;12634;50.852;5.676;2023-05-14T02:15:53;11.00;99.90
24468;DHT22;12634;50.852;5.676;2023-05-14T02:18:20;11.10;99.90
24468;DHT22;12634;50.852;5.676;2023-05-14T02:20:47;11.20;99.90
24468;DHT22;12634;50.852;5.676;2023-05-14T02:23:14;11.20;99.90
24468;DHT22;12634;50.852;5.676;2023-05-14T02:25:42;11.10;99.90
24468;DHT22;12634;50.852;5.676;2023-05-14T02:28:09;11.00;99.90
24468;DHT22;12634;50.852;5.676;2023-05-14T02:30:38;11.00;99.90
24468;DHT22;12634;50.852;5.676;2023-05-14T02:33:05;11.00;99.90
24468;DHT22;12634;50.852;5.676;2023-05-14T02:35:32;11.00;99.90
24468;DHT22;12634;50.852;5.676;2023-05-14T02:37:59;11.10;99.90
24468;DHT22;12634;50.852;5.676;2023-05-14T02:40:26;11.10;99.90
24468;DHT22;12634;50.852;5.676;2023-05-14T02:42:53;11.00;99.90
24468;DHT22;12634;50.852;5.676;2023-05-14T02:45:20;11.10;99.90
24468;DHT22;12634;50.852;5.676;2023-05-14T02:47:49;11.20;99.90
24468;DHT22;12634;50.852;5.676;2023-05-14T02:50:16;11.10;99.90
24468;DHT22;12634;50.852;5.676;2023-05-14T02:52:43;11.10;99.90
24468;DHT22;12634;50.852;5.676;2023-05-14T02:55:10;11.00;99.90
24468;DHT22;12634;50.852;5.676;2023-05-14T02:57:37;11.10;99.90
24468;DHT22;12634;50.852;5.676;2023-05-14T03:00:06;11.20;99.90
24468;DHT22;12634;50.852;5.676;2023-05-14T03:02:33;11.10;99.90
24468;DHT22;12634;50.852;5.676;2023-05-14T03:05:02;11.00;99.90
24468;DHT22;12634;50.852;5.676;2023-05-14T03:07:29;10.70;99.90
24468;DHT22;12634;50.852;5.676;2023-05-14T03:09:57;10.70;99.90
24468;DHT22;12634;50.852;5.676;2023-05-14T03:12:25;10.70;99.90
24468;DHT22;12634;50.852;5.676;2023-05-14T03:14:52;10.50;99.90
24468;DHT22;12634;50.852;5.676;2023-05-14T03:17:19;10.60;99.90
24468;DHT22;12634;50.852;5.676;2023-05-14T03:19:46;11.00;99.90
24468;DHT22;12634;50.852;5.676;2023-05-14T03:22:15;11.00;99.90
24468;DHT22;12634;50.852;5.676;2023-05-14T03:24:42;11.10;99.90
24468;DHT22;12634;50.852;5.676;2023-05-14T03:27:09;10.90;99.90
24468;DHT22;12634;50.852;5.676;2023-05-14T03:29:36;10.90;99.90
24468;DHT22;12634;50.852;5.676;2023-05-14T03:32:04;11.20;99.90
24468;DHT22;12634;50.852;5.676;2023-05-14T03:34:32;11.10;99.90
24468;DHT22;12634;50.852;5.676;2023-05-14T03:36:59;11.10;99.90
24468;DHT22;12634;50.852;5.676;2023-05-14T03:39:27;10.70;99.90
24468;DHT22;12634;50.852;5.676;2023-05-14T03:41:55;10.60;99.90
24468;DHT22;12634;50.852;5.676;2023-05-14T03:44:23;10.70;99.90
24468;DHT22;12634;50.852;5.676;2023-05-14T03:46:50;10.80;99.90
24468;DHT22;12634;50.852;5.676;2023-05-14T03:49:17;10.90;99.90
24468;DHT22;12634;50.852;5.676;2023-05-14T03:51:44;10.90;99.90
24468;DHT22;12634;50.852;5.676;2023-05-14T03:54:12;10.90;99.90
24468;DHT22;12634;50.852;5.676;2023-05-14T03:56:40;10.90;99.90
24468;DHT22;12634;50.852;5.676;2023-05-14T03:59:07;10.90;99.90
24468;DHT22;12634;50.852;5.676;2023-05-14T04:01:34;11.00;99.90
24468;DHT22;12634;50.852;5.676;2023-05-14T04:04:01;10.90;99.90
24468;DHT22;12634;50.852;5.676;2023-05-14T04:06:29;11.10;99.90
24468;DHT22;12634;50.852;5.676;2023-05-14T04:08:56;11.10;99.90
24468;DHT22;12634;50.852;5.676;2023-05-14T04:11:23;11.10;99.90
24468;DHT22;12634;50.852;5.676;2023-05-14T04:13:51;11.20;99.90
24468;DHT22;12634;50.852;5.676;2023-05-14T04:16:18;11.30;99.90
24468;DHT22;12634;50.852;5.676;2023-05-14T04:18:45;11.30;99.90
24468;DHT22;12634;50.852;5.676;2023-05-14T04:21:12;11.30;99.90
24468;DHT22;12634;50.852;5.676;2023-05-14T04:23:40;11.40;99.90
24468;DHT22;12634;50.852;5.676;2023-05-14T04:26:07;11.40;99.90
24468;DHT22;12634;50.852;5.676;2023-05-14T04:28:34;11.50;99.90
24468;DHT22;12634;50.852;5.676;2023-05-14T04:31:02;11.50;99.90
24468;DHT22;12634;50.852;5.676;2023-05-14T04:33:30;11.60;99.90
24468;DHT22;12634;50.852;5.676;2023-05-14T04:35:57;11.70;99.90
24468;DHT22;12634;50.852;5.676;2023-05-14T04:38:24;11.80;99.90
24468;DHT22;12634;50.852;5.676;2023-05-14T04:40:51;11.80;99.90
24468;DHT22;12634;50.852;5.676;2023-05-14T04:43:19;11.80;99.90
24468;DHT22;12634;50.852;5.676;2023-05-14T04:45:46;11.80;99.90
24468;DHT22;12634;50.852;5.676;2023-05-14T04:48:14;11.90;99.90
24468;DHT22;12634;50.852;5.676;2023-05-14T04:50:41;11.90;99.90
24468;DHT22;12634;50.852;5.676;2023-05-14T04:53:09;11.80;99.90
24468;DHT22;12634;50.852;5.676;2023-05-14T04:55:36;11.70;99.90
24468;DHT22;12634;50.852;5.676;2023-05-14T04:58:03;11.70;99.90
24468;DHT22;12634;50.852;5.676;2023-05-14T05:00:30;11.70;99.90
24468;DHT22;12634;50.852;5.676;2023-05-14T05:02:58;11.60;99.90
24468;DHT22;12634;50.852;5.676;2023-05-14T05:05:26;11.50;99.90
24468;DHT22;12634;50.852;5.676;2023-05-14T05:07:54;11.50;99.90
24468;DHT22;12634;50.852;5.676;2023-05-14T05:10:21;11.50;99.90
24468;DHT22;12634;50.852;5.676;2023-05-14T05:12:48;11.60;99.90
24468;DHT22;12634;50.852;5.676;2023-05-14T05:15:15;11.70;99.90
24468;DHT22;12634;50.852;5.676;2023-05-14T05:17:42;11.70;99.90
24468;DHT22;12634;50.852;5.676;2023-05-14T05:20:10;11.90;99.90
24468;DHT22;12634;50.852;5.676;2023-05-14T05:22:39;12.00;99.90
24468;DHT22;12634;50.852;5.676;2023-05-14T05:25:07;12.00;99.90
24468;DHT22;12634;50.852;5.676;2023-05-14T05:27:34;12.00;99.90
24468;DHT22;12634;50.852;5.676;2023-05-14T05:30:01;12.10;99.90
24468;DHT22;12634;50.852;5.676;2023-05-14T05:32:28;12.20;99.90
24468;DHT22;12634;50.852;5.676;2023-05-14T05:34:56;12.10;99.90
24468;DHT22;12634;50.852;5.676;2023-05-14T05:37:23;12.10;99.90
24468;DHT22;12634;50.852;5.676;2023-05-14T05:39:51;12.20;99.90
24468;DHT22;12634;50.852;5.676;2023-05-14T05:42:18;12.30;99.90
24468;DHT22;12634;50.852;5.676;2023-05-14T05:44:45;12.30;99.90
24468;DHT22;12634;50.852;5.676;2023-05-14T05:47:13;12.60;99.90
24468;DHT22;12634;50.852;5.676;2023-05-14T05:49:40;12.60;99.90
24468;DHT22;12634;50.852;5.676;2023-05-14T05:52:07;12.60;99.90
24468;DHT22;12634;50.852;5.676;2023-05-14T05:54:34;12.60;99.90
24468;DHT22;12634;50.852;5.676;2023-05-14T05:57:06;12.80;99.90
24468;DHT22;12634;50.852;5.676;2023-05-14T05:59:33;12.80;99.90
24468;DHT22;12634;50.852;5.676;2023-05-14T06:02:00;12.80;99.90
24468;DHT22;12634;50.852;5.676;2023-05-14T06:04:28;12.80;99.90
24468;DHT22;12634;50.852;5.676;2023-05-14T06:06:55;12.90;99.90
24468;DHT22;12634;50.852;5.676;2023-05-14T06:09:22;12.80;99.90
24468;DHT22;12634;50.852;5.676;2023-05-14T06:11:49;12.90;99.90
24468;DHT22;12634;50.852;5.676;2023-05-14T06:14:17;12.90;99.90
24468;DHT22;12634;50.852;5.676;2023-05-14T06:16:44;13.00;99.90
24468;DHT22;12634;50.852;5.676;2023-05-14T06:19:12;12.90;99.90
24468;DHT22;12634;50.852;5.676;2023-05-14T06:21:39;13.00;99.90
24468;DHT22;12634;50.852;5.676;2023-05-14T06:24:06;13.30;99.90
24468;DHT22;12634;50.852;5.676;2023-05-14T06:26:34;12.90;99.90
24468;DHT22;12634;50.852;5.676;2023-05-14T06:29:01;12.90;99.90
24468;DHT22;12634;50.852;5.676;2023-05-14T06:31:29;12.90;99.90
24468;DHT22;12634;50.852;5.676;2023-05-14T06:33:56;12.90;99.90
24468;DHT22;12634;50.852;5.676;2023-05-14T06:36:23;12.90;99.90
24468;DHT22;12634;50.852;5.676;2023-05-14T06:38:50;12.90;99.90
24468;DHT22;12634;50.852;5.676;2023-05-14T06:41:18;12.90;99.90
24468;DHT22;12634;50.852;5.676;2023-05-14T06:43:45;12.90;99.90
24468;DHT22;12634;50.852;5.676;2023-05-14T06:46:13;12.90;99.90
24468;DHT22;12634;50.852;5.676;2023-05-14T06:48:41;13.00;99.90
24468;DHT22;12634;50.852;5.676;2023-05-14T06:51:08;13.00;99.90
24468;DHT22;12634;50.852;5.676;2023-05-14T06:53:35;13.10;99.90
24468;DHT22;12634;50.852;5.676;2023-05-14T06:56:03;13.00;99.90
24468;DHT22;12634;50.852;5.676;2023-05-14T06:58:30;12.90;99.90
24468;DHT22;12634;50.852;5.676;2023-05-14T07:00:57;13.00;99.90
24468;DHT22;12634;50.852;5.676;2023-05-14T07:03:24;13.20;99.90
24468;DHT22;12634;50.852;5.676;2023-05-14T07:05:53;13.20;99.90
24468;DHT22;12634;50.852;5.676;2023-05-14T07:08:20;13.20;99.90
24468;DHT22;12634;50.852;5.676;2023-05-14T07:10:47;13.20;99.90
24468;DHT22;12634;50.852;5.676;2023-05-14T07:13:14;13.20;99.90
24468;DHT22;12634;50.852;5.676;2023-05-14T07:15:41;13.40;99.90
24468;DHT22;12634;50.852;5.676;2023-05-14T07:18:08;13.30;99.90
24468;DHT22;12634;50.852;5.676;2023-05-14T07:20:35;13.40;99.90
24468;DHT22;12634;50.852;5.676;2023-05-14T07:23:04;13.50;99.90
24468;DHT22;12634;50.852;5.676;2023-05-14T07:25:31;13.50;99.90
24468;DHT22;12634;50.852;5.676;2023-05-14T07:27:58;13.30;99.90
24468;DHT22;12634;50.852;5.676;2023-05-14T07:30:26;13.40;99.90
24468;DHT22;12634;50.852;5.676;2023-05-14T07:32:53;13.70;99.90
24468;DHT22;12634;50.852;5.676;2023-05-14T07:35:20;13.90;99.90
24468;DHT22;12634;50.852;5.676;2023-05-14T07:37:47;14.50;99.90
24468;DHT22;12634;50.852;5.676;2023-05-14T07:40:16;14.40;99.90
24468;DHT22;12634;50.852;5.676;2023-05-14T07:42:43;14.10;99.90
24468;DHT22;12634;50.852;5.676;2023-05-14T07:45:10;14.20;99.90
24468;DHT22;12634;50.852;5.676;2023-05-14T07:47:38;14.20;99.90
24468;DHT22;12634;50.852;5.676;2023-05-14T07:50:07;14.30;99.90
24468;DHT22;12634;50.852;5.676;2023-05-14T07:52:34;14.40;99.90
24468;DHT22;12634;50.852;5.676;2023-05-14T07:55:02;14.40;99.90
24468;DHT22;12634;50.852;5.676;2023-05-14T07:57:30;14.70;99.90
24468;DHT22;12634;50.852;5.676;2023-05-14T07:59:57;15.10;99.90
24468;DHT22;12634;50.852;5.676;2023-05-14T08:02:24;15.50;99.90
24468;DHT22;12634;50.852;5.676;2023-05-14T08:04:53;15.40;99.90
24468;DHT22;12634;50.852;5.676;2023-05-14T08:07:20;15.50;99.90
24468;DHT22;12634;50.852;5.676;2023-05-14T08:09:47;15.00;99.90
24468;DHT22;12634;50.852;5.676;2023-05-14T08:12:14;15.00;99.90
24468;DHT22;12634;50.852;5.676;2023-05-14T08:14:43;14.70;99.90
24468;DHT22;12634;50.852;5.676;2023-05-14T08:17:10;14.30;99.90
24468;DHT22;12634;50.852;5.676;2023-05-14T08:19:37;14.10;99.90
24468;DHT22;12634;50.852;5.676;2023-05-14T08:22:04;14.50;99.90
24468;DHT22;12634;50.852;5.676;2023-05-14T08:24:31;14.60;99.90
24468;DHT22;12634;50.852;5.676;2023-05-14T08:26:59;14.60;99.90
24468;DHT22;12634;50.852;5.676;2023-05-14T08:29:26;15.00;99.90
24468;DHT22;12634;50.852;5.676;2023-05-14T08:31:55;15.00;99.90
24468;DHT22;12634;50.852;5.676;2023-05-14T08:34:22;15.20;99.90
24468;DHT22;12634;50.852;5.676;2023-05-14T08:36:49;15.10;99.90
24468;DHT22;12634;50.852;5.676;2023-05-14T08:39:16;15.40;99.90
24468;DHT22;12634;50.852;5.676;2023-05-14T08:41:44;16.30;99.90
24468;DHT22;12634;50.852;5.676;2023-05-14T08:44:12;16.80;99.90
24468;DHT22;12634;50.852;5.676;2023-05-14T08:46:40;15.70;99.90
24468;DHT22;12634;50.852;5.676;2023-05-14T08:49:18;16.30;99.90
24468;DHT22;12634;50.852;5.676;2023-05-14T08:51:48;16.30;99.90
24468;DHT22;12634;50.852;5.676;2023-05-14T08:54:16;16.20;99.90
24468;DHT22;12634;50.852;5.676;2023-05-14T08:56:43;17.10;99.90
24468;DHT22;12634;50.852;5.676;2023-05-14T08:59:11;17.70;99.90
24468;DHT22;12634;50.852;5.676;2023-05-14T09:01:45;17.60;99.90
24468;DHT22;12634;50.852;5.676;2023-05-14T09:04:15;17.80;99.90
24468;DHT22;12634;50.852;5.676;2023-05-14T09:06:47;18.20;99.90
24468;DHT22;12634;50.852;5.676;2023-05-14T09:09:15;17.80;99.90
24468;DHT22;12634;50.852;5.676;2023-05-14T09:11:45;17.50;99.90
24468;DHT22;12634;50.852;5.676;2023-05-14T09:14:12;17.80;99.90
24468;DHT22;12634;50.852;5.676;2023-05-14T09:16:40;17.90;99.90
24468;DHT22;12634;50.852;5.676;2023-05-14T09:19:07;18.50;99.90
24468;DHT22;12634;50.852;5.676;2023-05-14T09:21:36;18.10;99.90
24468;DHT22;12634;50.852;5.676;2023-05-14T09:24:03;18.70;99.90
24468;DHT22;12634;50.852;5.676;2023-05-14T09:26:32;19.20;99.90
24468;DHT22;12634;50.852;5.676;2023-05-14T09:29:00;19.10;99.90
24468;DHT22;12634;50.852;5.676;2023-05-14T09:31:28;18.30;99.90
24468;DHT22;12634;50.852;5.676;2023-05-14T09:33:56;18.50;99.90
24468;DHT22;12634;50.852;5.676;2023-05-14T09:36:24;19.10;99.90
24468;DHT22;12634;50.852;5.676;2023-05-14T09:38:55;19.10;99.90
24468;DHT22;12634;50.852;5.676;2023-05-14T09:41:31;18.40;99.90
24468;DHT22;12634;50.852;5.676;2023-05-14T09:43:59;19.00;99.90
24468;DHT22;12634;50.852;5.676;2023-05-14T09:46:26;18.80;99.90
24468;DHT22;12634;50.852;5.676;2023-05-14T09:48:56;18.80;99.90
24468;DHT22;12634;50.852;5.676;2023-05-14T09:51:23;19.20;99.90
24468;DHT22;12634;50.852;5.676;2023-05-14T09:53:51;18.90;99.90
24468;DHT22;12634;50.852;5.676;2023-05-14T09:56:20;19.10;99.90
24468;DHT22;12634;50.852;5.676;2023-05-14T09:58:48;18.60;99.90
24468;DHT22;12634;50.852;5.676;2023-05-14T10:01:16;19.60;99.90
24468;DHT22;12634;50.852;5.676;2023-05-14T10:03:44;19.00;99.90
24468;DHT22;12634;50.852;5.676;2023-05-14T10:06:12;19.10;99.90
24468;DHT22;12634;50.852;5.676;2023-05-14T10:08:43;19.20;99.90
24468;DHT22;12634;50.852;5.676;2023-05-14T10:11:13;19.80;99.90
24468;DHT22;12634;50.852;5.676;2023-05-14T10:13:48;20.00;99.90
24468;DHT22;12634;50.852;5.676;2023-05-14T10:16:23;20.30;99.90
24468;DHT22;12634;50.852;5.676;2023-05-14T10:18:57;20.40;99.90
24468;DHT22;12634;50.852;5.676;2023-05-14T10:21:29;20.90;99.90
24468;DHT22;12634;50.852;5.676;2023-05-14T10:23:58;20.90;99.90
24468;DHT22;12634;50.852;5.676;2023-05-14T10:26:25;20.50;99.90
24468;DHT22;12634;50.852;5.676;2023-05-14T10:28:52;20.20;99.90
24468;DHT22;12634;50.852;5.676;2023-05-14T10:31:25;20.90;99.90
24468;DHT22;12634;50.852;5.676;2023-05-14T10:34:34;21.80;99.90
24468;DHT22;12634;50.852;5.676;2023-05-14T10:37:04;22.00;99.90
24468;DHT22;12634;50.852;5.676;2023-05-14T10:39:51;21.50;99.90
24468;DHT22;12634;50.852;5.676;2023-05-14T10:42:20;21.10;99.90
24468;DHT22;12634;50.852;5.676;2023-05-14T10:44:50;20.70;99.90
24468;DHT22;12634;50.852;5.676;2023-05-14T10:47:19;21.40;99.90
24468;DHT22;12634;50.852;5.676;2023-05-14T10:49:47;21.10;99.90
24468;DHT22;12634;50.852;5.676;2023-05-14T10:52:16;21.00;99.90
24468;DHT22;12634;50.852;5.676;2023-05-14T10:54:50;21.00;99.90
24468;DHT22;12634;50.852;5.676;2023-05-14T10:57:19;21.70;99.90
24468;DHT22;12634;50.852;5.676;2023-05-14T10:59:47;20.70;99.90
24468;DHT22;12634;50.852;5.676;2023-05-14T11:02:24;20.80;99.90
24468;DHT22;12634;50.852;5.676;2023-05-14T11:04:59;21.30;99.90
24468;DHT22;12634;50.852;5.676;2023-05-14T11:07:30;20.90;99.90
24468;DHT22;12634;50.852;5.676;2023-05-14T11:10:03;20.50;99.90
24468;DHT22;12634;50.852;5.676;2023-05-14T11:12:30;20.90;99.90
24468;DHT22;12634;50.852;5.676;2023-05-14T11:14:59;21.80;99.90
24468;DHT22;12634;50.852;5.676;2023-05-14T11:17:29;22.10;99.90
24468;DHT22;12634;50.852;5.676;2023-05-14T11:19:57;21.80;99.90
24468;DHT22;12634;50.852;5.676;2023-05-14T11:22:25;22.00;99.90
24468;DHT22;12634;50.852;5.676;2023-05-14T11:24:52;21.80;99.90
24468;DHT22;12634;50.852;5.676;2023-05-14T11:27:21;22.50;99.90
24468;DHT22;12634;50.852;5.676;2023-05-14T11:29:49;22.60;99.90
24468;DHT22;12634;50.852;5.676;2023-05-14T11:32:17;23.50;99.90
24468;DHT22;12634;50.852;5.676;2023-05-14T11:34:45;23.00;99.90
24468;DHT22;12634;50.852;5.676;2023-05-14T11:37:14;22.90;99.90
24468;DHT22;12634;50.852;5.676;2023-05-14T11:39:46;22.40;99.90
24468;DHT22;12634;50.852;5.676;2023-05-14T11:42:14;23.50;99.90
24468;DHT22;12634;50.852;5.676;2023-05-14T11:44:45;22.90;99.90
24468;DHT22;12634;50.852;5.676;2023-05-14T11:47:14;22.40;99.90
24468;DHT22;12634;50.852;5.676;2023-05-14T11:49:41;22.20;99.90
24468;DHT22;12634;50.852;5.676;2023-05-14T11:52:10;22.00;99.90
24468;DHT22;12634;50.852;5.676;2023-05-14T11:54:39;22.10;99.90
24468;DHT22;12634;50.852;5.676;2023-05-14T11:57:09;22.80;99.90
24468;DHT22;12634;50.852;5.676;2023-05-14T11:59:37;21.90;99.90
24468;DHT22;12634;50.852;5.676;2023-05-14T12:02:08;21.80;99.90
24468;DHT22;12634;50.852;5.676;2023-05-14T12:04:37;21.30;99.90
24468;DHT22;12634;50.852;5.676;2023-05-14T12:07:09;21.20;99.90
24468;DHT22;12634;50.852;5.676;2023-05-14T12:09:38;20.80;99.90
24468;DHT22;12634;50.852;5.676;2023-05-14T12:12:09;20.60;99.90
24468;DHT22;12634;50.852;5.676;2023-05-14T12:14:37;20.80;99.90
24468;DHT22;12634;50.852;5.676;2023-05-14T12:17:11;20.90;99.90
24468;DHT22;12634;50.852;5.676;2023-05-14T12:19:40;20.90;99.90
24468;DHT22;12634;50.852;5.676;2023-05-14T12:22:10;20.80;99.90
24468;DHT22;12634;50.852;5.676;2023-05-14T12:24:39;20.70;99.90
24468;DHT22;12634;50.852;5.676;2023-05-14T12:27:08;20.50;99.90
24468;DHT22;12634;50.852;5.676;2023-05-14T12:29:36;20.40;99.90
24468;DHT22;12634;50.852;5.676;2023-05-14T12:32:07;20.60;99.90
24468;DHT22;12634;50.852;5.676;2023-05-14T12:34:36;22.00;99.90
24468;DHT22;12634;50.852;5.676;2023-05-14T12:37:04;22.60;99.90
24468;DHT22;12634;50.852;5.676;2023-05-14T12:39:33;23.40;99.90
24468;DHT22;12634;50.852;5.676;2023-05-14T12:42:01;23.90;99.90
24468;DHT22;12634;50.852;5.676;2023-05-14T12:44:28;24.20;99.90
24468;DHT22;12634;50.852;5.676;2023-05-14T12:46:55;25.40;99.90
24468;DHT22;12634;50.852;5.676;2023-05-14T12:49:23;25.90;99.90
24468;DHT22;12634;50.852;5.676;2023-05-14T12:51:50;26.40;99.90
24468;DHT22;12634;50.852;5.676;2023-05-14T12:54:17;25.80;99.90
24468;DHT22;12634;50.852;5.676;2023-05-14T12:56:45;25.60;99.90
24468;DHT22;12634;50.852;5.676;2023-05-14T12:59:13;25.10;99.90
24468;DHT22;12634;50.852;5.676;2023-05-14T13:01:40;25.50;99.90
24468;DHT22;12634;50.852;5.676;2023-05-14T13:04:08;25.40;99.90
24468;DHT22;12634;50.852;5.676;2023-05-14T13:06:37;25.30;99.90
24468;DHT22;12634;50.852;5.676;2023-05-14T13:09:04;25.00;99.90
24468;DHT22;12634;50.852;5.676;2023-05-14T13:11:31;25.10;99.90
24468;DHT22;12634;50.852;5.676;2023-05-14T13:14:00;25.70;99.90
24468;DHT22;12634;50.852;5.676;2023-05-14T13:16:28;25.70;99.90
24468;DHT22;12634;50.852;5.676;2023-05-14T13:18:55;25.90;99.90
24468;DHT22;12634;50.852;5.676;2023-05-14T13:21:22;25.60;99.90
24468;DHT22;12634;50.852;5.676;2023-05-14T13:23:49;26.00;99.90
24468;DHT22;12634;50.852;5.676;2023-05-14T13:26:16;26.80;99.90
24468;DHT22;12634;50.852;5.676;2023-05-14T13:28:44;26.30;99.90
24468;DHT22;12634;50.852;5.676;2023-05-14T13:31:12;24.40;99.90
24468;DHT22;12634;50.852;5.676;2023-05-14T13:33:41;23.10;99.90
24468;DHT22;12634;50.852;5.676;2023-05-14T13:36:11;22.10;99.90
24468;DHT22;12634;50.852;5.676;2023-05-14T13:38:39;21.60;99.90
24468;DHT22;12634;50.852;5.676;2023-05-14T13:41:06;21.30;99.90
24468;DHT22;12634;50.852;5.676;2023-05-14T13:43:34;21.40;99.90
24468;DHT22;12634;50.852;5.676;2023-05-14T13:46:02;21.10;99.90
24468;DHT22;12634;50.852;5.676;2023-05-14T13:48:31;20.90;99.90
24468;DHT22;12634;50.852;5.676;2023-05-14T13:50:58;20.70;99.90
24468;DHT22;12634;50.852;5.676;2023-05-14T13:53:26;20.60;99.90
24468;DHT22;12634;50.852;5.676;2023-05-14T13:55:53;21.00;99.90
24468;DHT22;12634;50.852;5.676;2023-05-14T13:58:23;21.10;99.90
24468;DHT22;12634;50.852;5.676;2023-05-14T14:00:50;21.10;99.90
24468;DHT22;12634;50.852;5.676;2023-05-14T14:03:17;21.30;99.90
24468;DHT22;12634;50.852;5.676;2023-05-14T14:05:46;21.60;99.90
24468;DHT22;12634;50.852;5.676;2023-05-14T14:08:13;21.70;99.90
24468;DHT22;12634;50.852;5.676;2023-05-14T14:10:40;21.60;99.90
24468;DHT22;12634;50.852;5.676;2023-05-14T14:13:08;21.90;99.90
24468;DHT22;12634;50.852;5.676;2023-05-14T14:15:35;21.60;99.90
24468;DHT22;12634;50.852;5.676;2023-05-14T14:18:03;21.50;99.90
24468;DHT22;12634;50.852;5.676;2023-05-14T14:20:30;21.20;99.90
24468;DHT22;12634;50.852;5.676;2023-05-14T14:22:59;21.20;99.90
24468;DHT22;12634;50.852;5.676;2023-05-14T14:25:26;21.30;99.90
24468;DHT22;12634;50.852;5.676;2023-05-14T14:27:53;21.20;99.90
24468;DHT22;12634;50.852;5.676;2023-05-14T14:30:20;21.10;99.90
24468;DHT22;12634;50.852;5.676;2023-05-14T14:32:47;21.40;99.90
24468;DHT22;12634;50.852;5.676;2023-05-14T14:35:16;22.30;99.90
24468;DHT22;12634;50.852;5.676;2023-05-14T14:37:43;23.20;99.90
24468;DHT22;12634;50.852;5.676;2023-05-14T14:40:16;23.50;99.90
24468;DHT22;12634;50.852;5.676;2023-05-14T14:42:43;23.40;99.90
24468;DHT22;12634;50.852;5.676;2023-05-14T14:45:10;22.90;99.90
24468;DHT22;12634;50.852;5.676;2023-05-14T14:47:41;22.40;99.90
24468;DHT22;12634;50.852;5.676;2023-05-14T14:50:08;22.70;99.90
24468;DHT22;12634;50.852;5.676;2023-05-14T14:52:35;22.80;99.90
24468;DHT22;12634;50.852;5.676;2023-05-14T14:55:03;22.80;99.90
24468;DHT22;12634;50.852;5.676;2023-05-14T14:57:32;22.50;99.90
24468;DHT22;12634;50.852;5.676;2023-05-14T14:59:59;23.40;99.90
24468;DHT22;12634;50.852;5.676;2023-05-14T15:02:26;23.20;99.90
24468;DHT22;12634;50.852;5.676;2023-05-14T15:04:53;23.20;99.90
24468;DHT22;12634;50.852;5.676;2023-05-14T15:07:21;22.70;99.90
24468;DHT22;12634;50.852;5.676;2023-05-14T15:09:48;22.30;99.90
24468;DHT22;12634;50.852;5.676;2023-05-14T15:12:15;22.10;99.90
24468;DHT22;12634;50.852;5.676;2023-05-14T15:14:43;22.20;99.90
24468;DHT22;12634;50.852;5.676;2023-05-14T15:17:10;22.30;99.90
24468;DHT22;12634;50.852;5.676;2023-05-14T15:19:37;22.30;99.90
24468;DHT22;12634;50.852;5.676;2023-05-14T15:22:05;21.90;99.90
24468;DHT22;12634;50.852;5.676;2023-05-14T15:24:32;21.30;99.90
24468;DHT22;12634;50.852;5.676;2023-05-14T15:26:59;20.70;99.90
24468;DHT22;12634;50.852;5.676;2023-05-14T15:29:26;20.90;99.90
24468;DHT22;12634;50.852;5.676;2023-05-14T15:31:54;20.90;99.90
24468;DHT22;12634;50.852;5.676;2023-05-14T15:34:22;20.80;99.90
24468;DHT22;12634;50.852;5.676;2023-05-14T15:36:49;20.50;99.90